createdAt,value
2022-10-07T00:01:05.892Z,5.86
2022-10-07T00:03:06.863Z,5.91
2022-10-07T00:05:08.490Z,5.93
2022-10-07T00:07:10.159Z,5.86
2022-10-07T00:09:12.319Z,5.77
2022-10-07T00:11:13.754Z,5.84
2022-10-07T00:13:15.173Z,5.91
2022-10-07T00:15:16.240Z,5.96
2022-10-07T00:17:17.309Z,6.09
2022-10-07T00:19:18.449Z,6.09
2022-10-07T00:21:20.204Z,5.97
2022-10-07T00:23:21.453Z,5.88
2022-10-07T00:25:22.688Z,5.83
2022-10-07T00:27:24.157Z,5.9
2022-10-07T00:29:25.467Z,5.9
2022-10-07T00:35:29.828Z,5.85
2022-10-07T00:37:31.582Z,5.84
2022-10-07T00:39:32.679Z,5.9
2022-10-07T00:41:34.184Z,5.84
2022-10-07T00:43:35.175Z,5.83
2022-10-07T00:45:37.033Z,5.82
2022-10-07T00:47:38.461Z,5.83
2022-10-07T00:49:40.092Z,5.83
2022-10-07T00:51:41.285Z,5.86
2022-10-07T00:53:42.526Z,5.84
2022-10-07T00:55:44.034Z,5.8
2022-10-07T00:57:46.395Z,5.79
2022-10-07T00:59:47.739Z,5.82
2022-10-07T01:01:49.654Z,5.82
2022-10-07T01:03:50.889Z,5.8
2022-10-07T01:05:52.350Z,5.79
2022-10-07T01:07:57.056Z,5.86
2022-10-07T01:09:55.354Z,5.84
2022-10-07T01:11:56.585Z,5.85
2022-10-07T01:13:57.667Z,5.87
2022-10-07T01:15:59.410Z,5.85
2022-10-07T01:18:01.313Z,5.85
2022-10-07T01:20:03.247Z,5.82
2022-10-07T01:22:05.025Z,5.78
2022-10-07T01:24:06.203Z,5.75
2022-10-07T01:26:07.357Z,5.75
2022-10-07T01:28:09.322Z,5.73
2022-10-07T01:30:10.262Z,5.73
2022-10-07T01:32:12.211Z,5.72
2022-10-07T01:34:14.052Z,5.73
2022-10-07T01:36:15.336Z,5.77
2022-10-07T01:38:17.153Z,5.8
2022-10-07T01:39:01.067Z,5.88
2022-10-07T01:41:02.446Z,6.06
2022-10-07T01:43:03.856Z,6.08
2022-10-07T01:45:04.950Z,6.16
2022-10-07T01:47:06.267Z,6.16
2022-10-07T01:49:07.562Z,6.21
2022-10-07T01:51:08.570Z,6.27
2022-10-07T01:53:10.261Z,6.28
2022-10-07T01:55:11.931Z,6.33
2022-10-07T01:59:15.442Z,6.37
2022-10-07T02:01:17.184Z,6.35
2022-10-07T02:03:18.710Z,6.41
2022-10-07T02:05:19.928Z,6.4
2022-10-07T02:07:21.688Z,6.39
2022-10-07T02:09:22.916Z,6.39
2022-10-07T02:11:23.985Z,6.44
2022-10-07T02:13:25.613Z,6.48
2022-10-07T02:15:27.249Z,6.5
2022-10-07T02:17:28.235Z,6.48
2022-10-07T02:19:29.596Z,6.5
2022-10-07T02:21:30.738Z,6.53
2022-10-07T02:23:32.587Z,6.52
2022-10-07T02:25:34.219Z,6.51
2022-10-07T02:27:35.703Z,6.53
2022-10-07T02:29:37.303Z,6.54
2022-10-07T02:31:39.271Z,6.45
2022-10-07T02:33:41.218Z,6.41
2022-10-07T02:37:44.513Z,6.45
2022-10-07T02:41:48.071Z,6.37
2022-10-07T02:43:49.285Z,6.44
2022-10-07T02:45:50.226Z,6.44
2022-10-07T02:47:51.563Z,6.47
2022-10-07T02:49:53.287Z,6.44
2022-10-07T02:51:54.872Z,6.45
2022-10-07T02:53:56.369Z,6.47
2022-10-07T02:55:57.857Z,6.46
2022-10-07T02:57:59.462Z,6.49
2022-10-07T03:00:01.268Z,6.49
2022-10-07T03:02:02.791Z,6.4
2022-10-07T03:04:03.834Z,6.45
2022-10-07T03:06:05.363Z,6.48
2022-10-07T03:08:07.125Z,6.47
2022-10-07T03:10:08.801Z,6.51
2022-10-07T03:12:10.526Z,6.51
2022-10-07T03:14:12.058Z,6.49
2022-10-07T03:16:13.364Z,6.59
2022-10-07T03:18:14.832Z,6.71
2022-10-07T03:20:16.326Z,6.7
2022-10-07T03:24:19.566Z,6.67
2022-10-07T03:26:21.175Z,6.73
2022-10-07T03:28:23.024Z,6.75
2022-10-07T03:30:24.379Z,6.76
2022-10-07T03:32:25.216Z,6.73
2022-10-07T03:34:26.743Z,6.77
2022-10-07T03:36:28.558Z,6.78
2022-10-07T03:38:29.556Z,6.79
2022-10-07T03:40:31.098Z,6.82
2022-10-07T03:42:32.089Z,6.82
2022-10-07T03:44:33.644Z,6.88
2022-10-07T03:46:35.065Z,6.86
2022-10-07T03:48:36.783Z,6.79
2022-10-07T03:50:38.175Z,6.83
2022-10-07T03:52:39.856Z,6.88
2022-10-07T03:54:41.325Z,6.92
2022-10-07T03:56:42.644Z,6.96
2022-10-07T03:58:44.398Z,6.99
2022-10-07T04:00:45.449Z,7.02
2022-10-07T04:02:47.067Z,7.04
2022-10-07T04:04:48.479Z,7.03
2022-10-07T04:06:50.342Z,7.06
2022-10-07T04:08:51.485Z,7.05
2022-10-07T04:10:52.975Z,7.02
2022-10-07T04:12:54.826Z,6.94
2022-10-07T04:14:55.972Z,6.97
2022-10-07T04:16:57.739Z,6.9
2022-10-07T04:18:59.004Z,6.9
2022-10-07T04:21:00.170Z,6.95
2022-10-07T04:23:01.425Z,7.01
2022-10-07T04:25:03.001Z,7.01
2022-10-07T04:27:04.185Z,7.05
2022-10-07T04:29:05.405Z,7.02
2022-10-07T04:31:06.894Z,6.96
2022-10-07T04:33:07.984Z,6.94
2022-10-07T04:35:09.358Z,6.98
2022-10-07T04:37:10.982Z,6.96
2022-10-07T04:39:12.174Z,7
2022-10-07T04:41:14.072Z,7
2022-10-07T04:43:15.848Z,7.03
2022-10-07T04:45:17.287Z,7.06
2022-10-07T04:47:19.131Z,7.07
2022-10-07T04:49:20.737Z,7.04
2022-10-07T04:51:22.395Z,7.04
2022-10-07T04:53:23.502Z,7.04
2022-10-07T04:55:25.180Z,7.02
2022-10-07T04:57:26.589Z,7.05
2022-10-07T04:59:29.888Z,7.09
2022-10-07T05:01:29.372Z,7.07
2022-10-07T05:03:30.721Z,7.09
2022-10-07T05:05:31.778Z,7.07
2022-10-07T05:07:33.513Z,7.15
2022-10-07T05:09:34.523Z,7.15
2022-10-07T05:11:36.456Z,7.13
2022-10-07T05:13:38.008Z,7.15
2022-10-07T05:15:39.224Z,7.21
2022-10-07T05:17:40.208Z,7.19
2022-10-07T05:19:42.090Z,7.19
2022-10-07T05:21:43.683Z,7.24
2022-10-07T05:23:44.774Z,7.29
2022-10-07T05:25:46.137Z,7.22
2022-10-07T05:27:48.193Z,7.19
2022-10-07T05:29:49.069Z,7.26
2022-10-07T05:31:50.897Z,7.2
2022-10-07T05:33:52.518Z,7.22
2022-10-07T05:35:53.864Z,7.27
2022-10-07T05:37:55.822Z,7.29
2022-10-07T05:39:57.460Z,7.31
2022-10-07T05:41:59.052Z,7.39
2022-10-07T05:44:00.169Z,7.47
2022-10-07T05:46:01.759Z,7.49
2022-10-07T05:48:03.234Z,7.49
2022-10-07T05:50:04.768Z,7.46
2022-10-07T05:52:05.809Z,7.49
2022-10-07T05:54:07.472Z,7.54
2022-10-07T05:56:09.065Z,7.5
2022-10-07T05:58:10.730Z,7.51
2022-10-07T06:00:11.844Z,7.51
2022-10-07T06:02:13.707Z,7.45
2022-10-07T06:04:14.724Z,7.51
2022-10-07T06:06:16.408Z,7.57
2022-10-07T06:08:17.941Z,7.54
2022-10-07T06:10:19.583Z,7.6
2022-10-07T06:12:21.228Z,7.64
2022-10-07T06:14:22.997Z,7.6
2022-10-07T06:16:24.834Z,7.66
2022-10-07T06:18:26.306Z,7.72
2022-10-07T06:20:27.403Z,7.75
2022-10-07T06:22:28.989Z,7.8
2022-10-07T06:24:30.224Z,7.81
2022-10-07T06:26:31.629Z,7.86
2022-10-07T06:28:33.094Z,7.87
2022-10-07T06:30:34.174Z,7.9
2022-10-07T06:32:35.441Z,7.98
2022-10-07T06:34:36.411Z,7.94
2022-10-07T06:36:37.737Z,7.97
2022-10-07T06:38:38.866Z,8.03
2022-10-07T06:40:40.098Z,8.07
2022-10-07T06:42:41.416Z,8.1
2022-10-07T06:44:42.908Z,8.08
2022-10-07T06:46:44.119Z,8.12
2022-10-07T06:48:45.728Z,8.11
2022-10-07T06:50:47.186Z,8.11
2022-10-07T06:52:49.019Z,8.24
2022-10-07T06:54:50.072Z,8.21
2022-10-07T06:56:51.268Z,8.2
2022-10-07T06:58:52.767Z,8.27
2022-10-07T07:00:54.236Z,8.34
2022-10-07T07:02:55.816Z,8.39
2022-10-07T07:04:57.731Z,8.35
2022-10-07T07:06:58.393Z,8.35
2022-10-07T07:08:59.919Z,8.38
2022-10-07T07:11:00.992Z,8.5
2022-10-07T07:15:03.707Z,8.41
2022-10-07T07:17:05.140Z,8.4
2022-10-07T07:19:06.327Z,8.45
2022-10-07T07:21:07.446Z,8.46
2022-10-07T07:23:09.082Z,8.5
2022-10-07T07:25:10.288Z,8.45
2022-10-07T07:27:11.645Z,8.31
2022-10-07T07:29:12.592Z,8.47
2022-10-07T07:31:13.585Z,8.53
2022-10-07T07:33:15.325Z,8.62
2022-10-07T07:35:17.022Z,8.62
2022-10-07T07:37:18.631Z,8.78
2022-10-07T07:39:19.676Z,8.94
2022-10-07T07:41:21.179Z,8.98
2022-10-07T07:43:22.277Z,9.26
2022-10-07T07:45:23.378Z,9.49
2022-10-07T07:47:25.206Z,9.73
2022-10-07T07:49:26.292Z,9.9
2022-10-07T07:51:27.255Z,10.03
2022-10-07T07:53:28.773Z,10.01
2022-10-07T07:55:29.819Z,10.03
2022-10-07T07:57:30.850Z,10.06
2022-10-07T07:59:32.358Z,9.96
2022-10-07T08:01:33.922Z,9.94
2022-10-07T08:03:35.467Z,9.7
2022-10-07T08:05:36.622Z,9.67
2022-10-07T08:07:38.167Z,9.58
2022-10-07T08:11:40.926Z,9.68
2022-10-07T08:13:42.119Z,9.7
2022-10-07T08:15:43.592Z,9.71
2022-10-07T08:17:45.610Z,9.72
2022-10-07T08:19:47.148Z,9.8
2022-10-07T08:21:48.640Z,9.92
2022-10-07T08:23:49.730Z,10.04
2022-10-07T08:26:34.433Z,10.23
2022-10-07T08:28:36.357Z,10.31
2022-10-07T08:30:38.069Z,10.44
2022-10-07T08:32:39.386Z,10.49
2022-10-07T08:34:40.794Z,10.74
2022-10-07T08:36:42.638Z,10.86
2022-10-07T08:38:47.520Z,10.94
2022-10-07T08:40:45.800Z,11.07
2022-10-07T08:42:46.776Z,11.17
2022-10-07T08:44:48.418Z,11.16
2022-10-07T08:46:49.948Z,10.94
2022-10-07T08:48:51.161Z,11.2
2022-10-07T08:50:52.177Z,11.38
2022-10-07T08:52:53.992Z,11.17
2022-10-07T08:54:55.828Z,11.24
2022-10-07T08:56:57.367Z,11.52
2022-10-07T08:58:59.070Z,11.79
2022-10-07T09:01:00.715Z,12.37
2022-10-07T09:03:02.421Z,12.39
2022-10-07T09:05:04.245Z,12.72
2022-10-07T09:07:05.897Z,12.8
2022-10-07T09:09:06.796Z,12.91
2022-10-07T09:11:08.154Z,12.65
2022-10-07T09:13:09.384Z,12.32
2022-10-07T09:15:10.402Z,12.19
2022-10-07T09:17:12.179Z,12.22
2022-10-07T09:19:14.566Z,12.48
2022-10-07T09:21:15.994Z,12.56
2022-10-07T09:23:17.736Z,12.3
2022-10-07T09:25:19.291Z,12.66
2022-10-07T09:27:21.061Z,12.62
2022-10-07T09:29:22.396Z,12.83
2022-10-07T09:31:24.195Z,13.26
2022-10-07T09:33:25.026Z,13.38
2022-10-07T09:35:26.762Z,13.59
2022-10-07T09:37:28.422Z,13.1
2022-10-07T09:39:29.427Z,13.38
2022-10-07T09:41:31.365Z,13.57
2022-10-07T09:43:32.587Z,13.75
2022-10-07T09:45:34.049Z,13.94
2022-10-07T09:47:35.456Z,13.93
2022-10-07T09:49:36.801Z,14.03
2022-10-07T09:51:38.470Z,14.39
2022-10-07T09:53:39.793Z,14.54
2022-10-07T09:55:41.601Z,14.74
2022-10-07T09:57:42.919Z,14.75
2022-10-07T09:59:44.037Z,14.8
2022-10-07T10:01:46.437Z,14.29
2022-10-07T10:03:47.801Z,14.6
2022-10-07T10:05:48.813Z,15
2022-10-07T10:07:50.282Z,15.23
2022-10-07T10:09:52.255Z,15.4
2022-10-07T10:11:53.183Z,15.24
2022-10-07T10:13:54.652Z,15.25
2022-10-07T10:15:56.310Z,15.56
2022-10-07T10:17:57.609Z,15.8
2022-10-07T10:19:59.000Z,15.85
2022-10-07T10:21:59.969Z,16.27
2022-10-07T10:24:01.739Z,15.9
2022-10-07T10:26:03.124Z,16.08
2022-10-07T10:28:04.149Z,16.49
2022-10-07T10:30:05.650Z,16.87
2022-10-07T10:32:06.844Z,16.82
2022-10-07T10:34:08.610Z,17.15
2022-10-07T10:36:09.824Z,16.91
2022-10-07T10:38:10.777Z,17.02
2022-10-07T10:40:12.179Z,17.05
2022-10-07T10:42:13.247Z,17.3
2022-10-07T10:44:14.775Z,17.26
2022-10-07T10:46:15.996Z,17.24
2022-10-07T10:48:17.529Z,17.46
2022-10-07T10:50:19.149Z,17.37
2022-10-07T10:52:20.597Z,17.57
2022-10-07T10:54:21.433Z,17.74
2022-10-07T10:56:22.601Z,17.8
2022-10-07T10:58:23.754Z,18.12
2022-10-07T11:00:25.391Z,17.91
2022-10-07T11:02:26.821Z,17.9
2022-10-07T11:04:28.461Z,17.99
2022-10-07T11:06:29.214Z,18.24
2022-10-07T11:08:33.410Z,18.36
2022-10-07T11:10:31.752Z,18.54
2022-10-07T11:12:33.318Z,18.42
2022-10-07T11:14:34.552Z,18.75
2022-10-07T11:16:36.001Z,18.86
2022-10-07T11:18:37.005Z,19.06
2022-10-07T11:20:43.807Z,19.06
2022-10-07T11:22:40.964Z,19.25
2022-10-07T11:24:42.490Z,19.56
2022-10-07T11:26:44.113Z,18.89
2022-10-07T11:28:45.130Z,19.3
2022-10-07T11:30:46.081Z,19.4
2022-10-07T11:32:48.191Z,19.28
2022-10-07T11:34:52.256Z,18.99
2022-10-07T11:36:50.450Z,18.8
2022-10-07T11:38:51.914Z,19.32
2022-10-07T11:40:52.808Z,19.49
2022-10-07T11:42:54.137Z,19.85
2022-10-07T11:44:55.722Z,19.55
2022-10-07T11:46:57.095Z,19.71
2022-10-07T11:48:58.243Z,19.48
2022-10-07T11:50:59.923Z,19.45
2022-10-07T11:53:01.668Z,19.48
2022-10-07T11:55:03.207Z,19.32
2022-10-07T11:57:04.738Z,19.72
2022-10-07T11:59:06.031Z,18.98
2022-10-07T12:01:07.158Z,19.37
2022-10-07T12:03:08.026Z,19.11
2022-10-07T12:05:09.354Z,19.34
2022-10-07T12:07:11.115Z,19.3
2022-10-07T12:09:12.679Z,19.21
2022-10-07T12:11:13.702Z,19.38
2022-10-07T12:13:14.567Z,19.73
2022-10-07T12:15:16.340Z,19.42
2022-10-07T12:17:17.690Z,19.56
2022-10-07T12:19:23.203Z,19.57
2022-10-07T12:21:21.047Z,19.6
2022-10-07T12:23:21.964Z,19.49
2022-10-07T12:25:22.989Z,19.45
2022-10-07T12:27:24.528Z,20.09
2022-10-07T12:29:25.822Z,20.24
2022-10-07T12:31:27.355Z,19.86
2022-10-07T12:33:28.907Z,20.17
2022-10-07T12:35:29.970Z,20.49
2022-10-07T12:37:31.070Z,20.91
2022-10-07T12:39:32.817Z,21.38
2022-10-07T12:41:37.615Z,21.79
2022-10-07T12:43:35.671Z,22.26
2022-10-07T12:45:36.821Z,22.57
2022-10-07T12:47:37.541Z,22.31
2022-10-07T12:49:39.127Z,22.24
2022-10-07T12:51:40.425Z,21.51
2022-10-07T12:53:42.106Z,21.78
2022-10-07T12:55:42.882Z,21.1
2022-10-07T12:57:44.106Z,21.37
2022-10-07T12:59:44.959Z,21.13
2022-10-07T13:01:45.944Z,21.04
2022-10-07T13:03:47.594Z,21.32
2022-10-07T13:05:49.153Z,21.33
2022-10-07T13:07:50.735Z,21.08
2022-10-07T13:09:51.947Z,21.4
2022-10-07T13:11:53.317Z,21.16
2022-10-07T13:13:54.371Z,20.86
2022-10-07T13:15:55.832Z,20.8
2022-10-07T13:17:57.386Z,21.06
2022-10-07T13:19:58.995Z,21.21
2022-10-07T13:22:00.126Z,20.58
2022-10-07T13:24:01.565Z,20.49
2022-10-07T13:26:03.012Z,20.72
2022-10-07T13:28:13.270Z,20.96
2022-10-07T13:30:05.567Z,20.7
2022-10-07T13:32:06.495Z,20.35
2022-10-07T13:36:09.439Z,20.28
2022-10-07T13:38:11.168Z,20.47
2022-10-07T13:40:12.763Z,20.65
2022-10-07T13:42:16.949Z,20.35
2022-10-07T13:44:15.317Z,20.73
2022-10-07T13:46:16.507Z,21.34
2022-10-07T13:48:17.539Z,20.75
2022-10-07T13:50:19.073Z,20.6
2022-10-07T13:52:19.861Z,20.67
2022-10-07T13:54:21.666Z,20.15
2022-10-07T13:56:22.953Z,19.93
2022-10-07T13:58:24.175Z,19.71
2022-10-07T14:00:25.866Z,19.59
2022-10-07T14:02:26.813Z,19.55
2022-10-07T14:04:27.627Z,19.52
2022-10-07T14:06:29.229Z,19.55
2022-10-07T14:08:30.798Z,19.76
2022-10-07T14:10:31.924Z,19.73
2022-10-07T14:12:32.914Z,19.85
2022-10-07T14:14:34.302Z,19.79
2022-10-07T14:16:35.251Z,19.73
2022-10-07T14:18:36.573Z,19.83
2022-10-07T14:20:37.642Z,20.04
2022-10-07T14:24:39.723Z,20.02
2022-10-07T14:26:40.750Z,19.79
2022-10-07T14:28:42.374Z,19.78
2022-10-07T14:30:43.850Z,19.63
2022-10-07T14:32:45.466Z,19.64
2022-10-07T14:34:46.938Z,19.65
2022-10-07T14:36:47.929Z,19.53
2022-10-07T14:38:49.227Z,19.49
2022-10-07T14:40:50.625Z,19.43
2022-10-07T14:42:52.211Z,19.33
2022-10-07T14:44:53.614Z,19.16
2022-10-07T14:46:54.889Z,19.18
2022-10-07T14:48:56.540Z,19.07
2022-10-07T14:50:57.778Z,19.06
2022-10-07T14:52:58.946Z,19.1
2022-10-07T14:55:00.119Z,19.11
2022-10-07T14:57:01.059Z,19.11
2022-10-07T14:59:02.375Z,19.08
2022-10-07T15:01:04.167Z,19.01
2022-10-07T15:03:05.073Z,18.93
2022-10-07T15:05:06.131Z,18.88
2022-10-07T15:07:07.754Z,18.84
2022-10-07T15:09:08.632Z,18.93
2022-10-07T15:11:53.508Z,19.07
2022-10-07T15:13:54.441Z,19.07
2022-10-07T15:15:56.209Z,19.02
2022-10-07T15:17:57.814Z,18.97
2022-10-07T15:19:59.177Z,18.92
2022-10-07T15:22:00.371Z,18.88
2022-10-07T15:24:01.992Z,18.88
2022-10-07T15:26:03.436Z,18.87
2022-10-07T15:28:04.966Z,18.7
2022-10-07T15:30:05.727Z,18.78
2022-10-07T15:32:06.963Z,18.89
2022-10-07T15:34:08.256Z,19.1
2022-10-07T15:36:09.300Z,19.14
2022-10-07T15:38:11.076Z,19.03
2022-10-07T15:40:12.404Z,18.82
2022-10-07T15:42:13.951Z,18.7
2022-10-07T15:44:14.802Z,18.77
2022-10-07T15:46:16.228Z,18.8
2022-10-07T15:48:17.167Z,18.79
2022-10-07T15:50:18.720Z,18.81
2022-10-07T15:52:19.552Z,18.72
2022-10-07T15:54:21.201Z,18.71
2022-10-07T15:56:22.180Z,18.63
2022-10-07T15:58:23.746Z,18.56
2022-10-07T16:00:24.563Z,18.54
2022-10-07T16:02:26.198Z,18.49
2022-10-07T16:04:27.896Z,18.39
2022-10-07T16:06:28.872Z,18.02
2022-10-07T16:08:30.621Z,17.55
2022-10-07T16:10:31.815Z,17.29
2022-10-07T16:12:33.191Z,17.21
2022-10-07T16:14:34.109Z,17.18
2022-10-07T16:16:35.225Z,17.04
2022-10-07T16:18:36.908Z,16.76
2022-10-07T16:20:37.890Z,16.57
2022-10-07T16:22:39.496Z,16.47
2022-10-07T16:24:40.959Z,16.45
2022-10-07T16:26:42.524Z,16.43
2022-10-07T16:28:43.589Z,16.5
2022-10-07T16:30:44.996Z,16.45
2022-10-07T16:32:46.805Z,16.36
2022-10-07T16:34:47.697Z,15.97
2022-10-07T16:36:49.235Z,15.68
2022-10-07T16:38:50.716Z,15.6
2022-10-07T16:40:52.569Z,15.57
2022-10-07T16:42:53.642Z,15.58
2022-10-07T16:44:54.817Z,15.72
2022-10-07T16:46:56.523Z,15.69
2022-10-07T16:48:57.998Z,15.7
2022-10-07T16:50:58.869Z,15.71
2022-10-07T16:52:59.920Z,15.73
2022-10-07T16:55:01.203Z,15.65
2022-10-07T16:57:02.783Z,15.63
2022-10-07T16:59:03.734Z,15.62
2022-10-07T17:01:05.558Z,15.6
2022-10-07T17:03:07.280Z,15.55
2022-10-07T17:05:08.366Z,15.49
2022-10-07T17:07:09.783Z,15.55
2022-10-07T17:09:11.301Z,15.53
2022-10-07T17:11:12.609Z,15.44
2022-10-07T17:13:13.941Z,15.32
2022-10-07T17:15:14.787Z,15.2
2022-10-07T17:17:16.084Z,15.11
2022-10-07T17:19:17.011Z,15.06
2022-10-07T17:21:18.539Z,14.95
2022-10-07T17:23:20.065Z,15
2022-10-07T17:25:21.388Z,14.91
2022-10-07T17:27:22.910Z,14.86
2022-10-07T17:29:24.703Z,14.82
2022-10-07T17:31:26.271Z,14.81
2022-10-07T17:33:27.466Z,14.79
2022-10-07T17:35:29.050Z,14.77
2022-10-07T17:37:30.262Z,14.55
2022-10-07T17:39:31.833Z,14.44
2022-10-07T17:41:33.268Z,14.37
2022-10-07T17:43:34.585Z,14.32
2022-10-07T17:45:36.110Z,14.27
2022-10-07T17:47:37.048Z,14.24
2022-10-07T17:49:38.561Z,14.23
2022-10-07T17:51:40.276Z,14.29
2022-10-07T17:53:41.874Z,14.29
2022-10-07T17:55:42.991Z,14.48
2022-10-07T17:57:44.660Z,14.55
2022-10-07T17:59:45.374Z,14.61
2022-10-07T18:01:47.062Z,14.55
2022-10-07T18:03:48.420Z,14.47
2022-10-07T18:05:49.356Z,14.3
2022-10-07T18:07:50.346Z,14.18
2022-10-07T18:09:51.993Z,14.13
2022-10-07T18:11:53.287Z,14.07
2022-10-07T18:13:54.552Z,13.99
2022-10-07T18:15:55.820Z,13.87
2022-10-07T18:17:57.617Z,13.79
2022-10-07T18:19:59.012Z,13.75
2022-10-07T18:22:00.411Z,13.61
2022-10-07T18:24:02.120Z,13.51
2022-10-07T18:26:03.111Z,13.47
2022-10-07T18:28:04.320Z,13.41
2022-10-07T18:30:05.273Z,13.4
2022-10-07T18:32:06.877Z,13.27
2022-10-07T18:34:07.840Z,13.22
2022-10-07T18:36:09.726Z,13.07
2022-10-07T18:38:10.867Z,13.02
2022-10-07T18:40:12.171Z,13.11
2022-10-07T18:42:13.825Z,13.02
2022-10-07T18:44:15.497Z,13.17
2022-10-07T18:46:17.219Z,13.15
2022-10-07T18:48:18.263Z,13.27
2022-10-07T18:50:19.603Z,13.2
2022-10-07T18:52:20.973Z,13.08
2022-10-07T18:54:21.982Z,12.9
2022-10-07T18:56:23.794Z,12.92
2022-10-07T18:58:25.227Z,12.82
2022-10-07T19:00:26.928Z,12.7
2022-10-07T19:02:28.051Z,12.65
2022-10-07T19:04:29.233Z,12.63
2022-10-07T19:06:30.944Z,12.65
2022-10-07T19:08:32.442Z,12.54
2022-10-07T19:10:42.249Z,12.51
2022-10-07T19:12:35.575Z,12.49
2022-10-07T19:14:36.536Z,12.46
2022-10-07T19:16:37.692Z,12.54
2022-10-07T19:18:38.567Z,12.49
2022-10-07T19:20:40.378Z,12.48
2022-10-07T19:22:42.288Z,12.34
2022-10-07T19:24:43.876Z,12.32
2022-10-07T19:26:45.101Z,12.27
2022-10-07T19:28:46.125Z,12.13
2022-10-07T19:30:47.982Z,12.12
2022-10-07T19:32:48.964Z,12.26
2022-10-07T19:34:49.879Z,12.16
2022-10-07T19:36:51.308Z,12.11
2022-10-07T19:38:52.599Z,12.08
2022-10-07T19:40:53.712Z,12.09
2022-10-07T19:44:56.757Z,11.95
2022-10-07T19:46:58.444Z,11.84
2022-10-07T19:48:59.843Z,11.85
2022-10-07T19:51:01.562Z,11.98
2022-10-07T19:53:02.996Z,11.88
2022-10-07T19:55:04.202Z,11.83
2022-10-07T19:57:05.649Z,11.8
2022-10-07T19:59:07.172Z,11.71
2022-10-07T20:01:09.047Z,11.6
2022-10-07T20:03:09.995Z,11.53
2022-10-07T20:05:11.149Z,11.55
2022-10-07T20:07:12.535Z,11.59
2022-10-07T20:09:14.003Z,11.53
2022-10-07T20:11:15.703Z,11.48
2022-10-07T20:13:17.366Z,11.51
2022-10-07T20:15:18.958Z,11.53
2022-10-07T20:17:19.916Z,11.66
2022-10-07T20:19:21.798Z,11.78
2022-10-07T20:21:23.032Z,11.88
2022-10-07T20:23:23.909Z,11.99
2022-10-07T20:27:26.696Z,12.03
2022-10-07T20:29:28.169Z,12.07
2022-10-07T20:31:29.451Z,12.04
2022-10-07T20:33:30.339Z,12.05
2022-10-07T20:35:33.869Z,12.15
2022-10-07T20:37:32.490Z,12.14
2022-10-07T20:39:34.116Z,12.18
2022-10-07T20:41:35.656Z,12.28
2022-10-07T20:43:36.703Z,12.21
2022-10-07T20:45:38.544Z,12.21
2022-10-07T20:47:39.550Z,12.31
2022-10-07T20:49:40.816Z,12.33
2022-10-07T20:51:42.430Z,12.15
2022-10-07T20:53:43.363Z,11.91
2022-10-07T20:55:44.420Z,11.79
2022-10-07T20:57:46.146Z,11.53
2022-10-07T20:59:47.886Z,11.48
2022-10-07T21:01:49.251Z,11.45
2022-10-07T21:03:50.517Z,11.42
2022-10-07T21:05:51.911Z,11.48
2022-10-07T21:07:54.759Z,11.48
2022-10-07T21:09:54.793Z,11.4
2022-10-07T21:11:56.672Z,11.42
2022-10-07T21:13:57.990Z,11.58
2022-10-07T21:15:59.294Z,11.6
2022-10-07T21:18:00.437Z,11.72
2022-10-07T21:20:02.299Z,11.74
2022-10-07T21:22:03.691Z,11.71
2022-10-07T21:24:04.858Z,11.74
2022-10-07T21:26:05.989Z,11.66
2022-10-07T21:28:07.251Z,11.59
2022-10-07T21:30:08.203Z,11.31
2022-10-07T21:32:09.747Z,11.39
2022-10-07T21:34:11.474Z,11.48
2022-10-07T21:36:13.062Z,11.61
2022-10-07T21:38:14.575Z,11.57
2022-10-07T21:40:16.030Z,11.57
2022-10-07T21:42:17.038Z,11.6
2022-10-07T21:44:18.251Z,11.65
2022-10-07T21:46:19.489Z,11.75
2022-10-07T21:48:20.827Z,11.78
2022-10-07T21:50:22.600Z,11.99
2022-10-07T21:52:24.503Z,11.89
2022-10-07T21:54:26.419Z,11.88
2022-10-07T21:57:35.723Z,11.88
2022-10-07T21:59:37.436Z,11.81
2022-10-07T22:01:39.192Z,11.55
2022-10-07T22:03:40.693Z,11.46
2022-10-07T22:05:41.631Z,11.42
2022-10-07T22:07:42.909Z,11.45
2022-10-07T22:09:44.150Z,11.52
2022-10-07T22:11:45.694Z,11.54
2022-10-07T22:13:47.527Z,11.48
2022-10-07T22:15:49.235Z,11.43
2022-10-07T22:17:50.099Z,11.47
2022-10-07T22:19:51.311Z,11.36
2022-10-07T22:21:52.307Z,11.35
2022-10-07T22:23:53.277Z,11.39
2022-10-07T22:25:54.681Z,11.6
2022-10-07T22:27:55.685Z,11.75
2022-10-07T22:29:57.309Z,11.72
2022-10-07T22:31:58.442Z,11.7
2022-10-07T22:33:59.854Z,11.79
2022-10-07T22:36:01.296Z,11.99
2022-10-07T22:38:02.854Z,12.06
2022-10-07T22:40:04.053Z,12
2022-10-07T22:42:05.089Z,11.86
2022-10-07T22:44:06.415Z,11.69
2022-10-07T22:46:08.295Z,11.7
2022-10-07T22:48:10.111Z,11.63
2022-10-07T22:50:11.171Z,11.57
2022-10-07T22:52:12.161Z,11.69
2022-10-07T22:54:13.790Z,11.63
2022-10-07T22:56:15.501Z,11.58
2022-10-07T22:58:17.266Z,11.54
2022-10-07T23:00:18.392Z,11.43
2022-10-07T23:02:19.721Z,11.45
2022-10-07T23:04:20.760Z,11.5
2022-10-07T23:06:22.311Z,11.53
2022-10-07T23:08:23.350Z,11.49
2022-10-07T23:10:24.602Z,11.53
2022-10-07T23:12:26.116Z,11.71
2022-10-07T23:14:27.089Z,11.73
2022-10-07T23:16:28.348Z,11.9
2022-10-07T23:18:29.514Z,11.79
2022-10-07T23:20:31.375Z,11.72
2022-10-07T23:22:33.167Z,11.72
2022-10-07T23:24:34.890Z,11.7
2022-10-07T23:26:36.015Z,11.64
2022-10-07T23:28:37.426Z,11.69
2022-10-07T23:30:39.214Z,11.72
2022-10-07T23:32:40.160Z,11.71
2022-10-07T23:34:41.333Z,11.8
2022-10-07T23:36:43.061Z,11.78
2022-10-07T23:38:44.794Z,11.76
2022-10-07T23:40:45.905Z,11.83
2022-10-07T23:42:47.432Z,11.76
2022-10-07T23:44:48.424Z,11.65
2022-10-07T23:46:49.656Z,11.7
2022-10-07T23:48:50.623Z,11.75
2022-10-07T23:50:52.469Z,11.79
2022-10-07T23:52:53.641Z,11.75
2022-10-07T23:54:55.506Z,11.77
2022-10-07T23:56:57.062Z,11.8
2022-10-07T23:58:58.604Z,11.84
